Time;durP1;ratioP1;P1;durP2;ratioP2;P2;SDS_P1;SDS_P2;PMS_P1;PMS_P2;Temp;Humidity;BMP_temperature;BMP_pressure;BME280_temperature;BME280_humidity;BME280_pressure;Samples;Min_cycle;Max_cycle;Signal;HPM_P1;HPM_P2
2021/03/16 00:01:12;;;;;;;;;;;;;;;9.36;59.64;100647.44;5050665;27;98051;-82
2021/03/16 00:03:39;;;;;;;3.90;2.20;;;;;;;9.46;59.29;100647.06;5048968;27;97009;-82
2021/03/16 00:06:06;;;;;;;3.03;2.10;;;;;;;9.97;58.42;100649.78;5053568;27;97396;-82
2021/03/16 00:08:32;;;;;;;4.47;2.50;;;;;;;9.97;57.60;100652.41;5058628;27;97810;-81
2021/03/16 00:10:58;;;;;;;;;;;;;;;10.20;56.99;100658.69;5055732;27;101953;-80
2021/03/16 00:13:24;;;;;;;5.03;2.40;;;;;;;10.04;57.13;100658.34;5056010;27;97194;-80
2021/03/16 00:15:50;;;;;;;;;;;;;;;9.92;57.64;100664.88;5055848;27;96895;-79
2021/03/16 00:18:20;;;;;;;3.97;2.40;;;;;;;9.54;58.51;100667.94;5052055;27;98945;-82
2021/03/16 00:20:47;;;;;;;3.22;2.40;;;;;;;9.55;59.21;100674.94;5062631;27;98612;-82
2021/03/16 00:23:13;;;;;;;3.25;2.35;;;;;;;9.30;60.10;100676.63;5058977;27;97852;-81
2021/03/16 00:25:42;;;;;;;2.40;2.10;;;;;;;9.41;59.67;100672.75;5062065;27;96829;-81
2021/03/16 00:28:08;;;;;;;2.95;2.05;;;;;;;9.62;58.73;100673.84;5065454;27;100320;-81
2021/03/16 00:30:34;;;;;;;;;;;;;;;8.95;61.38;100683.84;5078666;27;101345;-80
2021/03/16 00:33:00;;;;;;;3.67;2.75;;;;;;;8.77;61.90;100684.38;5078090;27;97261;-80
2021/03/16 00:35:27;;;;;;;2.83;2.40;;;;;;;8.90;61.05;100691.03;5084591;27;96848;-80
2021/03/16 00:37:53;;;;;;;5.90;2.67;;;;;;;9.29;60.45;100682.81;5075959;27;99241;-79
2021/03/16 00:40:19;;;;;;;2.60;2.40;;;;;;;9.33;59.98;100694.97;5078465;27;98837;-79
2021/03/16 00:42:45;;;;;;;;;;;;;;;8.73;61.59;100695.91;5078419;27;96876;-79
2021/03/16 00:45:13;;;;;;;5.50;2.67;;;;;;;8.85;61.48;100703.47;5077491;27;97011;-79
2021/03/16 00:47:39;;;;;;;4.30;2.60;;;;;;;8.91;61.19;100699.78;5084684;27;99410;-80
2021/03/16 00:50:10;;;;;;;4.00;2.50;;;;;;;9.02;60.99;100703.84;5071608;27;101258;-81
2021/03/16 00:52:37;;;;;;;3.38;2.50;;;;;;;9.17;60.29;100706.03;5083159;27;96776;-81
2021/03/16 00:55:05;;;;;;;3.55;2.38;;;;;;;9.01;60.46;100701.25;5081737;27;96893;-81
2021/03/16 00:57:31;;;;;;;2.95;2.38;;;;;;;8.76;61.53;100709.88;5078536;27;100260;-82
2021/03/16 00:59:56;;;;;;;;;;;;;;;8.89;61.09;100709.50;5077381;27;99031;-81
2021/03/16 01:02:22;;;;;;;4.57;2.42;;;;;;;9.40;59.55;100712.34;5078839;27;97172;-82
2021/03/16 01:04:48;;;;;;;;;;;;;;;9.19;59.71;100709.44;5084234;27;96822;-82
2021/03/16 01:07:15;;;;;;;3.47;2.65;;;;;;;9.50;59.37;100719.06;5095088;27;98439;-82
2021/03/16 01:09:42;;;;;;;3.97;3.00;;;;;;;9.66;58.49;100715.03;5078655;27;98986;-81
2021/03/16 01:12:08;;;;;;;2.92;2.25;;;;;;;9.93;57.33;100714.13;5082677;27;96862;-81
2021/03/16 01:14:35;;;;;;;2.83;2.33;;;;;;;9.59;58.62;100718.75;5080301;27;97223;-83
2021/03/16 01:17:01;;;;;;;4.35;2.88;;;;;;;9.98;57.52;100717.47;5089946;27;96846;-82
2021/03/16 01:19:27;;;;;;;3.17;2.90;;;;;;;10.09;57.34;100721.53;5076525;27;99814;-81
2021/03/16 01:21:53;;;;;;;4.38;3.15;;;;;;;9.65;58.73;100730.94;5078102;27;96902;-81
2021/03/16 01:24:19;;;;;;;4.10;2.83;;;;;;;9.27;60.00;100737.38;5087300;27;99123;-82
2021/03/16 01:26:46;;;;;;;4.65;2.95;;;;;;;9.22;60.24;100729.59;5089661;27;97993;-81
2021/03/16 01:29:12;;;;;;;4.40;3.35;;;;;;;9.43;59.68;100731.59;5113522;27;99207;-81
2021/03/16 01:31:39;;;;;;;;;;;;;;;9.00;61.04;100745.19;5113537;27;95913;-83
2021/03/16 01:34:05;;;;;;;5.35;3.03;;;;;;;8.73;61.43;100738.91;5100009;27;96688;-82
2021/03/16 01:36:32;;;;;;;;;;;;;;;8.57;62.58;100749.94;5097950;27;97575;-80
2021/03/16 01:38:58;;;;;;;7.97;4.30;;;;;;;9.08;60.89;100744.97;5097565;27;98818;-82
2021/03/16 01:41:24;;;;;;;5.35;3.75;;;;;;;9.36;60.39;100747.66;5095507;27;96695;-80
2021/03/16 01:43:51;;;;;;;6.07;3.90;;;;;;;9.34;60.09;100754.72;5097214;27;96745;-81
2021/03/16 01:46:18;;;;;;;6.63;4.15;;;;;;;9.56;59.81;100758.44;5111912;27;97003;-81
2021/03/16 01:48:44;;;;;;;8.23;4.28;;;;;;;8.97;61.67;100760.22;5108071;27;98020;-82
2021/03/16 01:51:11;;;;;;;6.28;4.40;;;;;;;8.56;62.51;100759.59;5101880;27;97712;-82
2021/03/16 01:53:38;;;;;;;6.75;4.60;;;;;;;8.87;61.55;100756.09;5097048;27;96564;-81
2021/03/16 01:56:07;;;;;;;7.63;4.20;;;;;;;9.12;60.78;100768.53;5100491;27;97783;-81
2021/03/16 01:58:34;;;;;;;4.53;3.40;;;;;;;8.96;60.48;100766.41;5091500;27;100053;-82
2021/03/16 02:01:00;;;;;;;4.63;3.40;;;;;;;8.51;61.24;100763.28;5073585;27;97511;-82
2021/03/16 02:03:28;;;;;;;9.18;3.40;;;;;;;8.37;61.40;100767.13;5076705;27;97354;-82
2021/03/16 02:05:54;;;;;;;6.38;3.35;;;;;;;8.82;60.68;100771.19;5077782;27;99150;-81
2021/03/16 02:08:28;;;;;;;7.30;3.20;;;;;;;8.93;59.84;100775.25;5076357;27;98855;-80
2021/03/16 02:11:01;;;;;;;6.50;2.95;;;;;;;8.68;60.44;100776.84;5084307;27;96889;-81
2021/03/16 02:13:32;;;;;;;5.82;3.20;;;;;;;8.22;62.01;100772.75;5074486;27;96879;-82
2021/03/16 02:16:04;;;;;;;5.10;2.95;;;;;;;8.48;60.83;100776.50;5057952;27;98898;-81
2021/03/16 02:18:36;;;;;;;5.90;3.50;;;;;;;9.04;59.33;100793.41;5074425;27;98017;-81
2021/03/16 02:21:10;;;;;;;4.90;3.30;;;;;;;8.84;59.19;100790.47;5074029;27;97024;-81
2021/03/16 02:24:21;;;;;;;6.55;3.00;;;;;;;9.15;58.33;100791.31;5074502;27;97085;-83
2021/03/16 02:27:00;;;;;;;5.38;2.50;;;;;;;8.99;58.55;100796.16;5070284;27;98881;-81
2021/03/16 02:29:30;;;;;;;7.72;2.60;;;;;;;8.48;59.31;100797.56;5073463;27;99290;-82
2021/03/16 02:31:59;;;;;;;2.47;2.28;;;;;;;8.75;58.91;100810.03;5078957;27;96725;-81
2021/03/16 02:34:27;;;;;;;6.22;2.08;;;;;;;8.76;58.79;100809.13;5085044;27;98495;-81
2021/03/16 02:36:55;;;;;;;5.78;2.28;;;;;;;8.76;58.49;100809.13;5088794;27;100543;-82
2021/03/16 02:39:23;;;;;;;4.05;2.38;;;;;;;8.76;58.43;100809.97;5077868;27;98033;-83
2021/03/16 02:41:51;;;;;;;3.92;2.30;;;;;;;9.47;56.72;100814.97;5094982;27;96862;-82
2021/03/16 02:44:18;;;;;;;4.00;2.22;;;;;;;9.46;56.22;100813.25;5080702;27;96943;-83
2021/03/16 02:46:48;;;;;;;3.08;2.10;;;;;;;9.05;57.04;100817.09;5093322;27;98961;-82
2021/03/16 02:49:16;;;;;;;5.10;2.22;;;;;;;8.85;57.99;100829.09;5078104;27;98888;-81
2021/03/16 02:51:44;;;;;;;4.38;2.40;;;;;;;9.01;57.35;100833.03;5075701;27;96875;-82
2021/03/16 02:54:12;;;;;;;4.03;2.22;;;;;;;9.22;56.88;100836.84;5078721;27;96765;-82
2021/03/16 02:56:40;;;;;;;5.30;2.70;;;;;;;8.95;57.29;100835.84;5089310;27;99119;-82
2021/03/16 02:59:10;;;;;;;3.38;2.03;;;;;;;8.86;57.59;100841.38;5075348;27;99333;-81
2021/03/16 03:01:37;;;;;;;4.25;2.25;;;;;;;9.03;57.13;100847.03;5077002;27;96792;-83
2021/03/16 03:04:06;;;;;;;6.53;2.75;;;;;;;8.66;57.83;100855.91;5075297;27;96779;-82
2021/03/16 03:06:34;;;;;;;3.45;2.25;;;;;;;8.42;59.05;100848.63;5078209;27;98836;-83
2021/03/16 03:09:02;;;;;;;4.85;2.35;;;;;;;9.14;57.14;100850.22;5071370;27;99244;-82
2021/03/16 03:11:31;;;;;;;3.22;2.42;;;;;;;9.24;56.77;100858.75;5074570;27;97184;-83
2021/03/16 03:13:57;;;;;;;2.75;2.40;;;;;;;9.04;56.32;100861.94;5072645;27;97649;-82
2021/03/16 03:16:23;;;;;;;2.80;2.30;;;;;;;9.09;56.72;100866.19;5075138;27;99182;-82
2021/03/16 03:18:49;;;;;;;7.28;2.70;;;;;;;8.80;57.12;100861.69;5070000;27;97817;-82
2021/03/16 03:21:19;;;;;;;;;;;;;;;9.07;56.83;100870.63;5075055;27;97217;-82
2021/03/16 03:23:48;;;;;;;3.30;2.38;;;;;;;8.97;57.10;100871.78;5070371;27;96829;-82
2021/03/16 03:26:18;;;;;;;7.45;2.40;;;;;;;8.87;57.57;100874.69;5059762;27;97720;-83
2021/03/16 03:28:46;;;;;;;4.00;2.42;;;;;;;9.12;56.64;100881.06;5065948;27;98984;-82
2021/03/16 03:31:13;;;;;;;5.85;2.30;;;;;;;9.34;56.13;100883.94;5051872;27;96707;-82
2021/03/16 03:33:41;;;;;;;3.40;2.22;;;;;;;9.59;55.76;100882.31;5051063;27;96779;-83
2021/03/16 03:36:07;;;;;;;7.28;2.80;;;;;;;9.11;56.52;100885.47;5054200;27;99567;-82
2021/03/16 03:38:35;;;;;;;5.45;2.90;;;;;;;8.91;57.18;100887.78;5055088;27;99209;-82
2021/03/16 03:41:02;;;;;;;10.55;2.85;;;;;;;8.18;58.84;100889.56;5054246;27;97245;-81
2021/03/16 03:43:29;;;;;;;5.63;2.40;;;;;;;8.27;58.54;100896.38;5054065;27;97910;-83
2021/03/16 03:45:57;;;;;;;6.68;3.33;;;;;;;8.46;58.97;100900.34;5053874;27;99348;-81
2021/03/16 03:48:26;;;;;;;4.93;2.45;;;;;;;8.84;57.22;100901.13;5044288;27;99014;-81
2021/03/16 03:50:56;;;;;;;7.88;2.45;;;;;;;9.19;55.65;100903.69;5056509;27;97727;-82
2021/03/16 03:53:23;;;;;;;3.88;2.28;;;;;;;8.73;56.85;100911.94;5052371;27;97731;-81
2021/03/16 03:55:52;;;;;;;4.38;2.00;;;;;;;8.76;56.61;100912.75;5070941;27;97769;-80
2021/03/16 03:58:19;;;;;;;6.60;2.20;;;;;;;9.36;55.30;100921.69;5067492;27;97772;-81
2021/03/16 04:00:47;;;;;;;7.40;2.10;;;;;;;8.94;56.37;100919.28;5074888;27;96136;-82
2021/03/16 04:03:13;;;;;;;7.75;2.75;;;;;;;8.83;56.11;100920.47;5076443;27;95889;-82
2021/03/16 04:05:40;;;;;;;7.60;2.40;;;;;;;8.73;56.42;100925.09;5065805;27;97858;-83
2021/03/16 04:08:08;;;;;;;4.18;2.28;;;;;;;8.93;55.84;100922.84;5051026;27;98305;-83
2021/03/16 04:10:36;;;;;;;15.30;2.55;;;;;;;8.89;55.46;100928.22;5054854;27;97955;-83
2021/03/16 04:13:04;;;;;;;4.55;2.42;;;;;;;8.86;55.74;100929.16;5052010;27;96830;-82
2021/03/16 04:15:31;;;;;;;6.20;2.38;;;;;;;8.78;55.95;100926.75;5056303;27;98073;-81
2021/03/16 04:17:58;;;;;;;6.30;2.65;;;;;;;8.55;56.26;100931.69;5054764;27;100924;-82
2021/03/16 04:20:25;;;;;;;6.80;2.60;;;;;;;9.01;55.54;100941.97;5060438;27;96855;-82
2021/03/16 04:22:51;;;;;;;6.22;2.28;;;;;;;8.74;55.56;100942.66;5055768;27;97102;-82
2021/03/16 04:25:17;;;;;;;7.70;2.30;;;;;;;8.97;55.04;100948.22;5056323;27;99008;-81
2021/03/16 04:27:43;;;;;;;;;;;;;;;8.78;55.39;100942.56;5063421;27;98972;-81
2021/03/16 04:30:12;;;;;;;5.28;2.60;;;;;;;8.47;55.71;100944.19;5077219;27;96852;-81
2021/03/16 04:32:38;;;;;;;7.57;2.33;;;;;;;9.12;54.33;100953.06;5075308;27;96783;-81
2021/03/16 04:35:06;;;;;;;7.75;2.50;;;;;;;8.65;55.54;100950.81;5065281;27;99879;-81
2021/03/16 04:37:32;;;;;;;6.15;2.30;;;;;;;8.49;55.98;100952.06;5063709;27;99901;-82
2021/03/16 04:39:58;;;;;;;3.67;2.35;;;;;;;8.39;56.40;100957.56;5074280;27;96765;-81
2021/03/16 04:42:23;;;;;;;;;;;;;;;8.28;57.26;100958.66;5076693;27;96856;-80
2021/03/16 04:44:49;;;;;;;4.53;2.08;;;;;;;8.19;57.15;100958.88;5072320;27;98134;-81
2021/03/16 04:47:16;;;;;;;;;;;;;;;8.22;56.87;100958.78;5073379;27;100924;-82
2021/03/16 04:49:42;;;;;;;11.80;3.20;;;;;;;8.65;55.88;100962.22;5074384;27;97149;-81
2021/03/16 04:52:08;;;;;;;6.85;3.15;;;;;;;8.36;56.12;100968.16;5073615;27;96831;-82
2021/03/16 04:54:34;;;;;;;8.93;3.15;;;;;;;8.44;56.04;100973.25;5079665;27;101250;-82
2021/03/16 04:57:00;;;;;;;;;;;;;;;7.89;57.92;100982.31;5081740;27;100558;-82
2021/03/16 04:59:26;;;;;;;8.95;2.53;;;;;;;7.78;57.84;100973.78;5085137;27;97110;-82
2021/03/16 05:01:52;;;;;;;8.77;3.17;;;;;;;8.38;56.42;100976.00;5077775;27;96854;-82
2021/03/16 05:04:19;;;;;;;;;;;;;;;8.34;56.00;100993.63;5078947;27;99264;-82
2021/03/16 05:06:45;;;;;;;10.35;4.20;;;;;;;8.53;55.66;100995.88;5087618;27;101038;-83
2021/03/16 05:09:12;;;;;;;12.90;3.10;;;;;;;8.93;54.63;100991.34;5078040;27;97289;-82
2021/03/16 05:11:39;;;;;;;6.65;2.83;;;;;;;7.99;56.92;101007.53;5079922;27;96871;-83
2021/03/16 05:14:05;;;;;;;7.78;3.13;;;;;;;7.48;58.46;101006.78;5077276;27;98830;-81
2021/03/16 05:16:31;;;;;;;12.75;3.63;;;;;;;7.75;57.67;101013.28;5081609;27;101076;-83
2021/03/16 05:18:57;;;;;;;5.20;2.60;;;;;;;7.78;57.17;101015.00;5083547;27;97624;-82
2021/03/16 05:21:23;;;;;;;;;;;;;;;8.02;56.02;101019.75;5085572;27;96776;-81
2021/03/16 05:23:49;;;;;;;7.05;2.85;;;;;;;7.38;57.03;101026.25;5080935;27;98991;-83
2021/03/16 05:26:15;;;;;;;8.43;3.28;;;;;;;7.26;58.24;101029.13;5077721;27;98868;-82
2021/03/16 05:28:41;;;;;;;;;;;;;;;7.22;58.10;101032.66;5076226;27;97235;-81
2021/03/16 05:31:07;;;;;;;12.48;3.45;;;;;;;7.33;57.64;101035.13;5089732;27;96710;-82
2021/03/16 05:33:33;;;;;;;;;;;;;;;7.07;57.65;101040.84;5079014;27;100183;-83
2021/03/16 05:35:59;;;;;;;10.90;3.17;;;;;;;7.05;56.97;101045.22;5077701;27;97709;-83
2021/03/16 05:38:26;;;;;;;7.70;2.08;;;;;;;6.84;57.37;101062.19;5075600;27;96830;-81
2021/03/16 05:40:52;;;;;;;6.75;2.08;;;;;;;6.75;57.62;101062.34;5078641;27;96785;-84
2021/03/16 05:43:18;;;;;;;7.47;2.55;;;;;;;7.01;56.79;101052.31;5080432;27;98045;-83
2021/03/16 05:45:45;;;;;;;6.28;2.40;;;;;;;6.91;56.89;101065.59;5092160;27;97850;-83
2021/03/16 05:48:13;;;;;;;5.10;2.00;;;;;;;7.56;55.30;101062.75;5078922;27;96943;-83
2021/03/16 05:50:39;;;;;;;8.55;2.80;;;;;;;7.83;54.95;101065.75;5080283;27;97060;-84
2021/03/16 05:53:05;;;;;;;8.02;2.95;;;;;;;7.99;54.55;101067.19;5079141;27;99242;-83
2021/03/16 05:55:33;;;;;;;8.30;2.58;;;;;;;7.85;54.93;101067.47;5078017;27;98846;-83
2021/03/16 05:58:00;;;;;;;7.40;2.75;;;;;;;7.73;55.40;101074.72;5073917;27;98501;-82
2021/03/16 06:00:26;;;;;;;6.28;2.65;;;;;;;7.37;56.81;101085.00;5078257;27;97026;-83
2021/03/16 06:02:52;;;;;;;11.13;2.45;;;;;;;7.37;56.91;101081.50;5089879;27;98815;-81
2021/03/16 06:05:19;;;;;;;7.28;2.90;;;;;;;7.84;55.33;101078.00;5078654;27;99437;-83
2021/03/16 06:07:49;;;;;;;8.23;3.00;;;;;;;8.02;55.51;101077.66;5081198;27;98429;-81
2021/03/16 06:10:18;;;;;;;12.43;3.10;;;;;;;7.85;55.50;101090.28;5081768;27;96963;-82
2021/03/16 06:12:45;;;;;;;8.07;2.30;;;;;;;7.97;54.60;101088.28;5083726;27;98997;-82
2021/03/16 06:15:13;;;;;;;7.82;3.20;;;;;;;7.87;55.59;101084.09;5087224;27;98907;-84
2021/03/16 06:17:46;;;;;;;8.07;3.15;;;;;;;8.34;53.84;101095.44;5093418;27;96747;-81
2021/03/16 06:20:24;;;;;;;7.18;3.30;;;;;;;8.09;54.94;101095.06;5097290;27;96621;-83
2021/03/16 06:23:01;;;;;;;8.95;2.85;;;;;;;8.85;52.72;101097.88;5094628;27;98102;-82
2021/03/16 06:25:30;;;;;;;7.38;3.15;;;;;;;8.76;52.61;101110.34;5089521;27;96688;-83
2021/03/16 06:28:01;;;;;;;8.35;2.95;;;;;;;9.06;51.83;101106.13;5094373;27;96602;-79
2021/03/16 06:30:27;;;;;;;6.57;2.65;;;;;;;8.97;51.71;101116.91;5074750;27;97592;-82
2021/03/16 06:32:53;;;;;;;9.55;2.72;;;;;;;7.99;54.56;101119.84;5075107;27;98146;-81
2021/03/16 06:35:19;;;;;;;;;;;;;;;8.38;53.23;101126.97;5070628;27;100531;-82
2021/03/16 06:37:59;;;;;;;6.13;2.72;;;;;;;8.87;51.91;101123.28;5079321;27;97743;-82
2021/03/16 06:40:28;;;;;;;7.38;2.42;;;;;;;8.47;52.82;101135.59;5064156;27;96608;-83
2021/03/16 06:43:05;;;;;;;8.93;3.13;;;;;;;8.47;52.69;101135.59;5080536;27;97780;-83
2021/03/16 06:45:33;;;;;;;11.85;3.05;;;;;;;8.59;52.32;101133.56;5070804;27;99522;-83
2021/03/16 06:47:59;;;;;;;11.95;3.20;;;;;;;8.77;51.76;101142.84;5070903;27;96811;-81
2021/03/16 06:50:29;;;;;;;8.40;3.00;;;;;;;8.57;52.14;101148.53;5072743;27;96679;-79
2021/03/16 06:52:57;;;;;;;9.65;3.28;;;;;;;8.72;51.35;101144.72;5069481;27;98685;-81
2021/03/16 06:55:23;;;;;;;11.15;2.97;;;;;;;9.18;50.69;101150.69;5069147;27;97778;-80
2021/03/16 06:57:49;;;;;;;10.93;2.72;;;;;;;8.89;50.77;101145.19;5072005;27;96659;-81
2021/03/16 07:00:17;;;;;;;12.63;3.08;;;;;;;8.49;51.54;101152.22;5068127;27;96668;-83
2021/03/16 07:02:43;;;;;;;9.68;2.90;;;;;;;8.76;51.09;101151.63;5058723;27;101338;-81
2021/03/16 07:05:10;;;;;;;;;;;;;;;8.97;50.47;101167.00;5057804;27;100269;-84
2021/03/16 07:07:37;;;;;;;8.13;3.05;;;;;;;8.72;50.82;101160.53;5057906;27;97089;-83
2021/03/16 07:10:06;;;;;;;7.63;2.67;;;;;;;8.30;51.53;101162.22;5053026;27;97153;-83
2021/03/16 07:12:34;;;;;;;11.30;3.08;;;;;;;8.48;51.49;101172.41;5053640;27;101673;-82
2021/03/16 07:15:01;;;;;;;10.38;2.65;;;;;;;8.68;50.75;101169.38;5054274;27;97717;-83
2021/03/16 07:17:29;;;;;;;7.45;2.35;;;;;;;7.52;52.73;101174.16;5054081;27;96695;-83
2021/03/16 07:20:02;;;;;;;9.75;2.63;;;;;;;8.29;51.33;101177.16;5055303;27;96742;-81
2021/03/16 07:22:36;;;;;;;8.18;2.60;;;;;;;7.93;52.37;101177.84;5056872;27;100911;-81
2021/03/16 07:25:05;;;;;;;9.02;2.67;;;;;;;8.10;51.74;101178.41;5054241;27;97636;-82
2021/03/16 07:27:32;;;;;;;7.32;2.50;;;;;;;8.85;50.37;101180.44;5055532;27;96748;-82
2021/03/16 07:29:58;;;;;;;7.50;2.50;;;;;;;9.59;48.35;101185.72;5052893;27;97316;-83
2021/03/16 07:32:24;;;;;;;9.77;2.90;;;;;;;9.34;48.81;101195.13;5059962;27;98475;-83
2021/03/16 07:34:53;;;;;;;7.30;2.35;;;;;;;8.94;50.08;101192.53;5060156;27;97948;-85
2021/03/16 07:37:20;;;;;;;7.18;2.20;;;;;;;8.56;51.29;101201.22;5057487;27;96674;-83
2021/03/16 07:39:46;;;;;;;8.45;2.92;;;;;;;8.97;50.31;101203.03;5053431;27;97206;-84
2021/03/16 07:42:15;;;;;;;6.25;2.60;;;;;;;9.31;49.27;101204.00;5045774;27;99279;-84
2021/03/16 07:44:42;;;;;;;8.27;2.55;;;;;;;9.34;49.11;101208.31;5054887;27;99396;-84
2021/03/16 07:47:10;;;;;;;5.55;2.65;;;;;;;9.33;49.18;101215.38;5047815;27;96835;-85
2021/03/16 07:49:38;;;;;;;7.95;2.55;;;;;;;9.11;50.18;101219.41;5060094;27;97091;-82
2021/03/16 07:52:15;;;;;;;12.60;2.60;;;;;;;9.43;49.69;101218.69;5055709;27;99235;-84
2021/03/16 07:54:47;;;;;;;7.65;2.75;;;;;;;8.52;51.76;101221.53;5052877;27;98828;-83
2021/03/16 07:57:13;;;;;;;7.40;3.08;;;;;;;8.42;52.49;101224.34;5056633;27;96878;-83
2021/03/16 07:59:39;;;;;;;9.80;2.83;;;;;;;8.60;51.97;101232.75;5055746;27;97093;-84
2021/03/16 08:02:06;;;;;;;11.00;2.42;;;;;;;9.09;51.09;101234.38;5051152;27;98922;-81
2021/03/16 08:04:37;;;;;;;4.53;2.47;;;;;;;9.56;49.42;101239.47;5050684;27;98792;-84
2021/03/16 08:07:05;;;;;;;6.72;2.42;;;;;;;8.68;51.27;101243.13;5047625;27;97272;-85
2021/03/16 08:09:31;;;;;;;9.73;3.30;;;;;;;8.45;51.96;101248.00;5054397;27;97005;-85
2021/03/16 08:11:57;;;;;;;;;;;;;;;8.60;51.61;101245.06;5053586;27;97836;-84
2021/03/16 08:14:25;;;;;;;7.25;2.42;;;;;;;8.96;50.63;101249.59;5052627;27;98960;-84
2021/03/16 08:16:52;;;;;;;8.90;3.05;;;;;;;9.03;49.95;101253.84;5053793;27;97004;-85
2021/03/16 08:19:36;;;;;;;5.53;2.17;;;;;;;8.81;49.87;101255.16;5057496;27;97265;-84
2021/03/16 08:22:03;;;;;;;6.72;2.45;;;;;;;9.71;47.29;101262.00;5048727;27;98280;-84
2021/03/16 08:24:36;;;;;;;7.68;2.63;;;;;;;9.06;48.82;101251.13;5049753;27;101163;-84
2021/03/16 08:27:03;;;;;;;9.23;2.30;;;;;;;8.51;50.08;101259.28;5052287;27;96880;-83
2021/03/16 08:29:31;;;;;;;7.45;2.20;;;;;;;8.73;49.64;101262.34;5071666;27;97550;-85
2021/03/16 08:31:58;;;;;;;4.80;2.30;;;;;;;8.67;49.16;101267.75;5076087;27;99174;-84
2021/03/16 08:34:28;;;;;;;21.20;2.58;;;;;;;8.51;49.82;101271.59;5078456;27;99167;-85
2021/03/16 08:36:54;;;;;;;5.72;2.45;;;;;;;9.42;48.66;101277.59;5083656;27;97168;-86
2021/03/16 08:39:22;;;;;;;13.45;4.22;;;;;;;10.02;47.51;101271.78;5099192;27;96946;-85
2021/03/16 08:41:57;;;;;;;8.57;2.42;;;;;;;9.57;48.79;101282.53;5075015;27;99415;-83
2021/03/16 08:44:24;;;;;;;10.60;2.50;;;;;;;9.94;47.94;101283.41;5080658;27;100959;-85
2021/03/16 08:46:50;;;;;;;7.22;2.40;;;;;;;9.96;47.79;101286.00;5077474;27;98052;-85
2021/03/16 08:49:17;;;;;;;;;;;;;;;9.63;48.13;101278.91;5084924;27;97059;-84
2021/03/16 08:51:43;;;;;;;8.20;2.50;;;;;;;10.00;48.20;101280.63;5098929;27;97786;-83
2021/03/16 08:54:10;;;;;;;6.47;2.72;;;;;;;10.04;47.28;101285.84;5104312;27;97754;-84
2021/03/16 08:56:36;;;;;;;7.03;2.45;;;;;;;10.28;47.00;101296.66;5093251;27;96881;-84
2021/03/16 08:59:05;;;;;;;10.20;3.17;;;;;;;10.34;47.12;101299.16;5096327;27;97802;-85
2021/03/16 09:01:33;;;;;;;9.20;2.63;;;;;;;10.43;46.40;101292.78;5093467;27;97768;-85
2021/03/16 09:04:17;;;;;;;8.02;2.58;;;;;;;10.03;47.08;101302.56;5086433;27;97753;-85
2021/03/16 09:06:44;;;;;;;9.85;3.00;;;;;;;9.21;49.12;101315.84;5092319;27;96780;-84
2021/03/16 09:09:11;;;;;;;7.45;3.17;;;;;;;9.34;48.91;101312.06;5092865;27;96802;-85
2021/03/16 09:11:42;;;;;;;5.32;2.42;;;;;;;9.49;48.95;101313.50;5082932;27;99011;-84
2021/03/16 09:14:11;;;;;;;7.35;2.65;;;;;;;10.02;46.85;101314.03;5085970;27;99340;-84
2021/03/16 09:16:46;;;;;;;11.38;2.63;;;;;;;9.61;48.12;101313.22;5082020;27;97372;-84
2021/03/16 09:19:15;;;;;;;6.15;2.70;;;;;;;10.26;46.50;101314.31;5086894;27;97123;-84
2021/03/16 09:24:43;;;;;;;;;;;;;;;9.50;47.89;101321.38;5092531;27;98638;-85
2021/03/16 09:27:16;;;;;;;10.05;2.53;;;;;;;9.80;47.06;101311.03;5089852;27;97016;-86
2021/03/16 09:29:59;;;;;;;6.50;2.83;;;;;;;9.83;46.54;101319.75;5091498;27;96877;-88
2021/03/16 09:32:26;;;;;;;8.63;2.75;;;;;;;10.55;44.77;101310.94;5089897;27;96947;-87
2021/03/16 09:34:53;;;;;;;9.55;2.35;;;;;;;10.90;44.28;101317.91;5086135;27;99715;-87
2021/03/16 09:37:19;;;;;;;8.52;2.95;;;;;;;10.70;44.55;101313.16;5100604;27;96994;-86
2021/03/16 09:39:59;;;;;;;7.15;2.28;;;;;;;10.28;45.37;101317.81;5073643;27;97010;-87
2021/03/16 09:42:34;;;;;;;8.57;2.85;;;;;;;10.21;44.87;101316.22;5089838;27;99295;-87
2021/03/16 09:45:03;;;;;;;6.70;1.98;;;;;;;8.81;47.37;101321.03;5084558;27;96896;-86
2021/03/16 09:50:15;;;;;;;4.20;1.60;;;;;;;10.21;44.82;101315.34;5085798;27;96433;-86
2021/03/16 09:52:42;;;;;;;5.97;1.90;;;;;;;9.24;46.48;101318.44;5083091;27;97423;-84
2021/03/16 09:55:14;;;;;;;4.55;1.90;;;;;;;9.62;45.49;101320.25;5090321;27;100603;-86
2021/03/16 09:57:40;;;;;;;4.60;1.88;;;;;;;9.13;46.89;101326.56;5088860;27;96692;-84
2021/03/16 10:00:16;;;;;;;7.90;1.92;;;;;;;9.61;45.81;101326.41;5087535;27;98887;-85
2021/03/16 10:02:44;;;;;;;6.63;1.90;;;;;;;9.70;45.17;101331.50;5085187;27;96656;-86
2021/03/16 10:05:12;;;;;;;6.00;1.85;;;;;;;9.31;46.95;101335.00;5085736;27;98826;-85
2021/03/16 10:07:39;;;;;;;5.78;2.40;;;;;;;9.52;45.92;101329.25;5088913;27;97870;-85
2021/03/16 10:12:59;;;;;;;2.80;1.70;;;;;;;9.57;45.51;101327.41;5078900;27;99662;-86
2021/03/16 10:15:29;;;;;;;6.32;1.60;;;;;;;9.41;45.46;101329.50;5085096;27;99601;-84
2021/03/16 10:18:00;;;;;;;6.85;1.70;;;;;;;9.68;45.29;101330.66;5068799;27;97027;-84
2021/03/16 10:20:29;;;;;;;5.93;1.58;;;;;;;10.04;43.76;101334.22;5085030;27;97183;-86
2021/03/16 10:23:13;;;;;;;8.35;1.65;;;;;;;9.82;43.60;101333.84;5088324;27;99103;-86
2021/03/16 10:25:39;;;;;;;7.57;2.22;;;;;;;9.90;43.96;101331.91;5088496;27;97814;-83
2021/03/16 10:28:08;;;;;;;8.93;1.67;;;;;;;10.43;43.53;101326.25;5075874;27;98617;-81
2021/03/16 10:30:37;;;;;;;5.03;1.92;;;;;;;9.91;44.33;101335.44;5083024;27;97851;-84
2021/03/16 10:33:08;;;;;;;7.20;1.70;;;;;;;10.38;43.72;101329.84;5098563;27;98166;-84
2021/03/16 10:35:36;;;;;;;5.43;2.03;;;;;;;10.15;43.76;101328.69;5095099;27;99622;-85
2021/03/16 10:38:03;;;;;;;4.30;1.75;;;;;;;10.56;42.97;101331.19;5097967;27;96969;-84
2021/03/16 10:40:31;;;;;;;3.50;1.42;;;;;;;10.34;42.95;101329.97;5097111;27;96394;-85
2021/03/16 10:42:57;;;;;;;5.72;2.00;;;;;;;10.19;43.67;101330.34;5092723;27;96735;-84
2021/03/16 10:45:24;;;;;;;6.28;1.83;;;;;;;10.28;43.33;101328.38;5102354;27;98118;-85
2021/03/16 10:47:56;;;;;;;4.07;1.50;;;;;;;11.01;41.99;101330.84;5091474;27;96991;-84
2021/03/16 10:50:23;;;;;;;5.90;1.63;;;;;;;10.58;42.06;101324.06;5094477;27;96733;-84
2021/03/16 10:52:50;;;;;;;4.18;1.60;;;;;;;10.45;41.83;101322.66;5089717;27;99848;-85
2021/03/16 10:55:16;;;;;;;5.28;1.42;;;;;;;10.72;41.41;101329.84;5084820;27;99986;-86
2021/03/16 10:57:42;;;;;;;3.08;1.45;;;;;;;11.00;40.86;101329.09;5080238;27;97042;-86
2021/03/16 11:00:10;;;;;;;4.05;1.50;;;;;;;11.01;40.86;101330.84;5080837;27;96774;-87
2021/03/16 11:02:46;;;;;;;6.28;1.70;;;;;;;11.35;39.79;101334.25;5082333;27;99628;-85
2021/03/16 11:05:14;;;;;;;3.90;1.75;;;;;;;11.21;40.30;101331.16;5084482;27;101695;-84
2021/03/16 11:07:41;;;;;;;5.00;1.55;;;;;;;11.49;40.31;101332.03;5080989;27;96715;-85
2021/03/16 11:10:11;;;;;;;3.63;1.25;;;;;;;10.77;41.73;101335.00;5084128;27;96899;-84
2021/03/16 11:12:37;;;;;;;4.55;1.67;;;;;;;10.70;42.23;101338.72;5079602;27;98369;-86
2021/03/16 11:15:08;;;;;;;3.55;2.03;;;;;;;11.43;40.50;101334.88;5061453;27;97850;-85
2021/03/16 11:17:35;;;;;;;2.70;1.52;;;;;;;11.75;40.36;101347.16;5082700;27;96668;-84
2021/03/16 11:20:01;;;;;;;2.03;1.63;;;;;;;11.99;39.97;101348.19;5079513;27;96861;-85
2021/03/16 11:22:28;;;;;;;5.13;1.80;;;;;;;12.08;39.62;101349.69;5093982;27;98134;-85
2021/03/16 11:24:54;;;;;;;3.58;2.22;;;;;;;11.47;40.15;101341.84;5095286;27;96840;-85
2021/03/16 11:27:21;;;;;;;;;;;;;;;12.19;39.26;101351.09;5093924;27;96681;-85
2021/03/16 11:29:47;;;;;;;3.92;1.42;;;;;;;11.75;40.06;101341.88;5074937;27;96692;-86
2021/03/16 11:32:13;;;;;;;4.00;1.48;;;;;;;11.87;39.47;101351.25;5075026;27;99917;-86
2021/03/16 11:34:40;;;;;;;3.10;1.10;;;;;;;12.23;38.98;101349.19;5056517;27;102222;-85
2021/03/16 11:37:06;;;;;;;2.30;1.33;;;;;;;12.50;38.18;101344.75;5065617;27;96752;-85
2021/03/16 11:39:33;;;;;;;4.15;1.55;;;;;;;12.75;37.76;101349.16;5058261;27;97908;-84
2021/03/16 11:42:02;;;;;;;7.13;3.40;;;;;;;13.01;36.83;101342.94;5061186;27;98156;-85
2021/03/16 11:44:29;;;;;;;5.25;1.88;;;;;;;13.06;36.97;101343.63;5066225;27;100142;-86
2021/03/16 11:46:58;;;;;;;3.33;1.60;;;;;;;12.04;38.57;101348.91;5071461;27;96692;-86
2021/03/16 11:49:25;;;;;;;9.88;1.58;;;;;;;12.51;37.83;101351.78;5069650;27;97743;-86